Orbital elements of FENGYUN 1C DEB
| Launched | 9 May 1999 |
| Flight ended | – |
| Launch site | Taiyuan Space Center, PRC |
| Owner | People's Republic of China |
| NORAD ID | 30409 |
| Date fetched |
Epoch osculation |
Inc. [°] |
Ecc. | RA asc node [hr] |
Arg Peri. [°] |
Mean anom [°] |
Mean motion [rev/day] |
Abs. mag |
| Date fetched |
Epoch osculation |
Inc. [°] |
Ecc. | RA asc node [hr] |
Arg Peri. [°] |
Mean anom [°] |
Mean motion [rev/day] |
Abs. mag |
| 2026 May 08 17:57 | 2026 May 05 11:10:51 | 98.4888 | 0.01659 | 7.2245 | 319.7536 | 193.7850 | 14.04131 | – |
| 2026 May 07 17:58 | 2026 May 05 11:10:51 | 98.4888 | 0.01659 | 7.2245 | 319.7536 | 193.7850 | 14.04131 | – |
| 2026 May 06 17:57 | 2026 May 05 11:10:51 | 98.4888 | 0.01659 | 7.2245 | 319.7536 | 193.7850 | 14.04131 | – |
| 2026 May 05 17:57 | 2026 May 05 11:10:51 | 98.4888 | 0.01659 | 7.2245 | 319.7536 | 193.7850 | 14.04131 | – |
| 2026 May 04 17:57 | 2026 Apr 29 21:11:20 | 98.4879 | 0.01664 | 6.8764 | 335.5334 | 193.7850 | 14.04131 | – |
| 2026 May 03 17:57 | 2026 Apr 29 21:11:20 | 98.4879 | 0.01664 | 6.8764 | 335.5334 | 193.7850 | 14.04131 | – |
| 2026 May 02 17:57 | 2026 Apr 29 21:11:20 | 98.4879 | 0.01664 | 6.8764 | 335.5334 | 193.7850 | 14.04131 | – |
| 2026 May 01 17:56 | 2026 Apr 29 21:11:20 | 98.4879 | 0.01664 | 6.8764 | 335.5334 | 193.7850 | 14.04131 | – |
| 2026 Apr 30 17:56 | 2026 Apr 29 21:11:20 | 98.4879 | 0.01664 | 6.8764 | 335.5334 | 193.7850 | 14.04131 | – |
| 2026 Apr 29 17:57 | 2026 Apr 24 10:05:45 | 98.4878 | 0.01667 | 6.5358 | 351.0028 | 193.7850 | 14.04131 | – |
| 2026 Apr 28 17:56 | 2026 Apr 24 10:05:45 | 98.4878 | 0.01667 | 6.5358 | 351.0028 | 193.7850 | 14.04131 | – |
| 2026 Apr 27 17:58 | 2026 Apr 24 10:05:45 | 98.4878 | 0.01667 | 6.5358 | 351.0028 | 193.7850 | 14.04131 | – |
| 2026 Apr 26 17:58 | 2026 Apr 24 10:05:45 | 98.4878 | 0.01667 | 6.5358 | 351.0028 | 193.7850 | 14.04131 | – |
| 2026 Apr 25 17:58 | 2026 Apr 24 10:05:45 | 98.4878 | 0.01667 | 6.5358 | 351.0028 | 193.7850 | 14.04131 | – |
| 2026 Apr 24 17:59 | 2026 Apr 24 10:05:45 | 98.4878 | 0.01667 | 6.5358 | 351.0028 | 193.7850 | 14.04131 | – |
| 2026 Apr 23 17:57 | 2026 Apr 18 21:46:37 | 98.4875 | 0.01673 | 6.1921 | 6.5765 | 193.7850 | 14.04131 | – |
| 2026 Apr 22 17:57 | 2026 Apr 18 21:46:37 | 98.4875 | 0.01673 | 6.1921 | 6.5765 | 193.7850 | 14.04131 | – |
| 2026 Apr 21 17:57 | 2026 Apr 18 21:46:37 | 98.4875 | 0.01673 | 6.1921 | 6.5765 | 193.7850 | 14.04131 | – |
| 2026 Apr 20 17:57 | 2026 Apr 18 21:46:37 | 98.4875 | 0.01673 | 6.1921 | 6.5765 | 193.7850 | 14.04131 | – |
| 2026 Apr 19 17:58 | 2026 Apr 18 21:46:37 | 98.4875 | 0.01673 | 6.1921 | 6.5765 | 193.7850 | 14.04131 | – |
| 2026 Apr 18 17:56 | 2026 Apr 12 10:47:20 | 98.4873 | 0.01679 | 5.7896 | 24.7349 | 193.7850 | 14.04131 | – |
| 2026 Apr 16 17:57 | 2026 Apr 12 10:47:20 | 98.4873 | 0.01679 | 5.7896 | 24.7349 | 193.7850 | 14.04131 | – |
| 2026 Apr 14 17:57 | 2026 Apr 12 10:47:20 | 98.4873 | 0.01679 | 5.7896 | 24.7349 | 193.7850 | 14.04131 | – |
| 2026 Apr 13 17:57 | 2026 Apr 12 10:47:20 | 98.4873 | 0.01679 | 5.7896 | 24.7349 | 193.7850 | 14.04131 | – |
| 2026 Apr 12 17:57 | 2026 Apr 08 10:52:15 | 98.4873 | 0.01681 | 5.5405 | 35.9708 | 193.7850 | 14.04131 | – |
| 2026 Apr 11 17:57 | 2026 Apr 08 10:52:15 | 98.4873 | 0.01681 | 5.5405 | 35.9708 | 193.7850 | 14.04131 | – |